createdAt,value
2019-05-10T00:00:09.363Z,83.20
2019-05-10T00:02:56.569Z,83.60
2019-05-10T00:05:44.039Z,83.80
2019-05-10T00:08:31.201Z,84.10
2019-05-10T00:11:08.122Z,84.40
2019-05-10T00:13:50.812Z,85.00
2019-05-10T00:16:19.544Z,85.20
2019-05-10T00:18:48.282Z,85.60
2019-05-10T00:21:16.997Z,85.60
2019-05-10T00:23:45.729Z,85.50
2019-05-10T00:26:14.454Z,85.50
2019-05-10T00:28:43.178Z,85.30
2019-05-10T00:31:11.931Z,85.20
2019-05-10T00:33:40.627Z,84.80
2019-05-10T00:36:09.449Z,84.50
2019-05-10T00:38:38.180Z,84.00
2019-05-10T00:41:06.893Z,83.40
2019-05-10T00:43:35.628Z,83.10
2019-05-10T00:46:04.366Z,82.80
2019-05-10T00:48:33.064Z,82.50
2019-05-10T00:51:01.800Z,82.20
2019-05-10T00:53:30.572Z,81.70
2019-05-10T00:55:59.236Z,81.60
2019-05-10T00:58:28.035Z,81.30
2019-05-10T01:00:56.761Z,81.40
2019-05-10T01:03:25.573Z,81.20
2019-05-10T01:05:54.269Z,81.40
2019-05-10T01:08:23.011Z,81.40
2019-05-10T01:10:51.728Z,81.10
2019-05-10T01:13:20.459Z,81.30
2019-05-10T01:15:49.192Z,81.10
2019-05-10T01:18:17.913Z,81.00
2019-05-10T01:20:46.724Z,81.80
2019-05-10T01:23:15.457Z,81.20
2019-05-10T01:25:44.178Z,81.10
2019-05-10T01:28:12.908Z,81.10
2019-05-10T01:30:41.897Z,81.20
2019-05-10T01:33:10.625Z,81.50
2019-05-10T01:35:39.366Z,81.30
2019-05-10T01:38:08.078Z,81.00
2019-05-10T01:40:36.849Z,81.10
2019-05-10T01:43:05.564Z,81.30
2019-05-10T01:45:34.293Z,81.70
2019-05-10T01:48:03.004Z,81.80
2019-05-10T01:50:31.743Z,81.60
2019-05-10T01:53:00.462Z,81.60
2019-05-10T01:55:29.194Z,81.80
2019-05-10T01:57:57.997Z,81.90
2019-05-10T02:00:26.732Z,82.10
2019-05-10T02:02:55.457Z,82.00
2019-05-10T02:05:24.180Z,81.90
2019-05-10T02:07:52.915Z,81.90
2019-05-10T02:10:21.692Z,82.00
2019-05-10T02:12:50.458Z,81.90
2019-05-10T02:15:19.288Z,81.80
2019-05-10T02:17:48.014Z,82.10
2019-05-10T02:20:17.005Z,82.50
2019-05-10T02:22:45.717Z,82.30
2019-05-10T02:25:14.591Z,82.20
2019-05-10T02:27:43.296Z,82.40
2019-05-10T02:30:12.358Z,82.60
2019-05-10T02:32:41.084Z,82.80
2019-05-10T02:35:11.266Z,83.10
2019-05-10T02:37:40.014Z,83.30
2019-05-10T02:40:08.830Z,83.50
2019-05-10T02:42:37.660Z,83.60
2019-05-10T02:45:08.316Z,83.80
2019-05-10T02:47:37.196Z,83.80
2019-05-10T02:50:07.595Z,83.80
2019-05-10T02:52:36.365Z,84.00
2019-05-10T02:55:07.383Z,83.90
2019-05-10T02:57:37.420Z,84.00
2019-05-10T03:00:08.989Z,84.50
2019-05-10T03:02:38.623Z,84.60
2019-05-10T03:05:08.038Z,84.80
2019-05-10T03:07:39.881Z,84.90
2019-05-10T03:10:10.955Z,85.00
2019-05-10T03:12:41.620Z,85.10
2019-05-10T03:15:13.427Z,85.20
2019-05-10T03:17:42.435Z,85.30
2019-05-10T03:20:12.111Z,85.30
2019-05-10T03:22:44.386Z,85.20
2019-05-10T03:25:14.366Z,85.30
2019-05-10T03:27:43.362Z,85.30
2019-05-10T03:30:12.541Z,85.20
2019-05-10T03:32:41.275Z,85.30
2019-05-10T03:35:10.998Z,85.30
2019-05-10T03:37:40.167Z,85.40
2019-05-10T03:40:10.309Z,85.40
2019-05-10T03:42:39.028Z,85.50
2019-05-10T03:45:08.268Z,85.40
2019-05-10T03:47:37.060Z,85.40
2019-05-10T03:50:09.121Z,84.80
2019-05-10T03:52:37.847Z,84.80
2019-05-10T03:55:07.573Z,84.80
2019-05-10T03:57:36.292Z,84.40
2019-05-10T04:00:07.966Z,83.70
2019-05-10T04:02:35.846Z,83.40
2019-05-10T04:05:06.266Z,82.90
2019-05-10T04:07:34.995Z,82.90
2019-05-10T04:10:08.558Z,82.40
2019-05-10T04:12:37.403Z,81.90
2019-05-10T04:15:10.425Z,81.70
2019-05-10T04:17:39.169Z,81.50
2019-05-10T04:20:08.400Z,81.70
2019-05-10T04:22:37.217Z,81.10
2019-05-10T04:25:06.441Z,80.90
2019-05-10T04:27:38.678Z,80.10
2019-05-10T04:30:07.999Z,79.80
2019-05-10T04:32:36.756Z,79.80
2019-05-10T04:35:06.653Z,79.60
2019-05-10T04:37:35.380Z,79.30
2019-05-10T04:40:07.644Z,78.80
2019-05-10T04:42:36.376Z,78.50
2019-05-10T04:45:06.966Z,77.90
2019-05-10T04:47:35.698Z,77.60
2019-05-10T04:50:05.090Z,77.50
2019-05-10T04:52:34.967Z,77.40
2019-05-10T04:55:04.722Z,77.50
2019-05-10T04:57:49.264Z,77.30
2019-05-10T05:00:06.161Z,77.90
2019-05-10T05:02:35.017Z,77.60
2019-05-10T05:05:05.394Z,77.90
2019-05-10T05:07:34.116Z,78.10
2019-05-10T05:10:02.970Z,78.00
2019-05-10T05:12:31.757Z,77.80
2019-05-10T05:15:00.533Z,77.80
2019-05-10T05:17:29.213Z,78.00
2019-05-10T05:19:58.053Z,77.10
2019-05-10T05:22:26.769Z,76.80
2019-05-10T05:25:01.303Z,76.30
2019-05-10T05:27:25.872Z,76.60
2019-05-10T05:29:54.590Z,76.00
2019-05-10T05:32:23.318Z,76.10
2019-05-10T05:34:52.097Z,75.50
2019-05-10T05:37:20.913Z,75.00
2019-05-10T05:39:49.620Z,75.20
2019-05-10T05:42:22.399Z,75.00
2019-05-10T05:44:48.705Z,73.90
2019-05-10T05:47:17.473Z,74.50
2019-05-10T05:49:46.215Z,73.10
2019-05-10T05:52:15.613Z,72.50
2019-05-10T05:54:44.345Z,72.20
2019-05-10T05:57:13.088Z,71.50
2019-05-10T05:59:42.160Z,71.50
2019-05-10T06:02:10.890Z,70.60
2019-05-10T06:04:40.913Z,69.60
2019-05-10T06:07:10.047Z,69.90
2019-05-10T06:09:39.400Z,70.20
2019-05-10T06:12:12.620Z,70.00
2019-05-10T06:14:43.328Z,69.00
2019-05-10T06:17:10.040Z,69.10
2019-05-10T06:19:38.856Z,67.80
2019-05-10T06:22:07.543Z,68.50
2019-05-10T06:24:36.253Z,68.10
2019-05-10T06:27:05.163Z,68.70
2019-05-10T06:29:34.013Z,68.50
2019-05-10T06:32:02.732Z,68.90
2019-05-10T06:34:37.936Z,69.20
2019-05-10T06:37:02.043Z,69.20
2019-05-10T06:39:30.770Z,68.90
2019-05-10T06:41:59.468Z,68.70
2019-05-10T06:44:31.285Z,68.70
2019-05-10T06:47:02.016Z,69.30
2019-05-10T06:49:29.185Z,68.20
2019-05-10T06:51:57.908Z,67.60
2019-05-10T06:54:26.678Z,67.70
2019-05-10T06:56:55.440Z,66.60
2019-05-10T06:59:24.981Z,66.10
2019-05-10T07:01:54.552Z,66.20
2019-05-10T07:04:23.260Z,66.30
2019-05-10T07:06:51.999Z,67.10
2019-05-10T07:09:20.736Z,68.00
2019-05-10T07:11:49.440Z,67.70
2019-05-10T07:14:18.153Z,67.10
2019-05-10T07:16:46.959Z,67.80
2019-05-10T07:19:15.756Z,67.90
2019-05-10T07:21:50.661Z,68.50
2019-05-10T07:24:18.370Z,68.50
2019-05-10T07:26:45.374Z,68.30
2019-05-10T07:29:29.130Z,68.40
2019-05-10T07:31:44.507Z,68.10
2019-05-10T07:34:15.617Z,68.20
2019-05-10T07:36:43.676Z,68.20
2019-05-10T07:39:12.466Z,68.60
2019-05-10T07:41:41.239Z,68.40
2019-05-10T07:44:10.567Z,67.90
2019-05-10T07:46:40.074Z,68.30
2019-05-10T07:49:09.870Z,68.50
2019-05-10T07:51:38.613Z,68.70
2019-05-10T07:54:07.382Z,69.00
2019-05-10T07:56:39.081Z,69.10
2019-05-10T07:59:06.576Z,69.60
2019-05-10T08:01:35.300Z,69.20
2019-05-10T08:04:04.016Z,70.30
2019-05-10T08:06:40.211Z,69.20
2019-05-10T08:09:07.063Z,68.90
2019-05-10T08:11:35.080Z,69.90
2019-05-10T08:14:06.105Z,71.40
2019-05-10T08:16:34.291Z,72.70
2019-05-10T08:19:03.015Z,71.50
2019-05-10T08:21:32.237Z,71.90
2019-05-10T08:24:05.175Z,72.30
2019-05-10T08:26:33.117Z,72.20
2019-05-10T08:29:02.165Z,72.40
2019-05-10T08:31:39.913Z,72.40
2019-05-10T08:34:02.247Z,72.90
2019-05-10T08:36:32.234Z,72.10
2019-05-10T08:39:10.033Z,72.20
2019-05-10T08:41:32.570Z,73.80
2019-05-10T08:44:04.793Z,75.70
2019-05-10T08:46:40.048Z,78.50
2019-05-10T08:49:02.448Z,76.90
2019-05-10T08:51:32.322Z,77.90
2019-05-10T08:54:01.914Z,77.40
2019-05-10T08:56:33.068Z,76.50
2019-05-10T08:59:03.821Z,76.20
2019-05-10T09:01:44.700Z,75.80
2019-05-10T09:04:06.891Z,74.90
2019-05-10T09:06:34.000Z,74.20
2019-05-10T09:09:08.390Z,74.00
2019-05-10T09:11:35.285Z,73.90
2019-05-10T09:14:04.180Z,74.10
2019-05-10T09:16:39.310Z,73.60
2019-05-10T09:19:04.539Z,74.20
2019-05-10T09:21:33.236Z,70.90
2019-05-10T09:24:06.249Z,69.10
2019-05-10T09:26:32.397Z,68.00
2019-05-10T09:29:01.756Z,66.70
2019-05-10T09:31:32.642Z,67.50
2019-05-10T09:34:02.456Z,67.90
2019-05-10T09:36:36.003Z,68.40
2019-05-10T09:39:03.431Z,68.90
2019-05-10T09:41:33.782Z,67.00
2019-05-10T09:44:03.111Z,66.40
2019-05-10T09:46:32.502Z,68.90
2019-05-10T09:49:13.829Z,67.80
2019-05-10T09:51:33.079Z,68.30
2019-05-10T09:54:02.016Z,67.30
2019-05-10T09:56:32.779Z,67.80
2019-05-10T09:59:01.258Z,67.50
2019-05-10T10:01:30.082Z,68.60
2019-05-10T10:04:02.002Z,67.10
2019-05-10T10:06:29.856Z,68.10
2019-05-10T10:09:00.968Z,68.60
2019-05-10T10:11:29.243Z,69.10
2019-05-10T10:14:00.004Z,70.00
2019-05-10T10:16:28.425Z,70.30
2019-05-10T10:18:57.151Z,70.30
2019-05-10T10:21:35.040Z,70.90
2019-05-10T10:23:57.413Z,70.80
2019-05-10T10:26:26.913Z,69.50
2019-05-10T10:28:57.841Z,70.30
2019-05-10T10:31:32.589Z,69.90
2019-05-10T10:34:00.381Z,69.90
2019-05-10T10:36:27.564Z,69.10
2019-05-10T10:38:56.574Z,68.80
2019-05-10T10:41:29.723Z,68.20
2019-05-10T10:43:58.103Z,68.50
2019-05-10T10:46:28.002Z,67.80
2019-05-10T10:48:56.678Z,66.80
2019-05-10T10:51:26.563Z,66.60
2019-05-10T10:53:58.103Z,67.60
2019-05-10T10:56:27.671Z,66.30
2019-05-10T10:58:58.173Z,65.20
2019-05-10T11:01:37.975Z,65.10
2019-05-10T11:03:57.461Z,65.80
2019-05-10T11:06:26.180Z,68.50
2019-05-10T11:08:54.900Z,69.20
2019-05-10T11:11:23.648Z,69.70
2019-05-10T11:14:00.552Z,69.50
2019-05-10T11:16:22.768Z,71.10
2019-05-10T11:18:52.061Z,69.60
2019-05-10T11:21:23.470Z,68.20
2019-05-10T11:23:51.301Z,69.50
2019-05-10T11:26:21.756Z,70.40
2019-05-10T11:28:51.427Z,69.90
2019-05-10T11:31:21.380Z,69.50
2019-05-10T11:33:53.751Z,68.40
2019-05-10T11:36:21.135Z,68.70
2019-05-10T11:38:56.493Z,70.90
2019-05-10T11:41:23.810Z,70.30
2019-05-10T11:43:50.786Z,70.30
2019-05-10T11:46:20.912Z,69.70
2019-05-10T11:48:50.972Z,67.70
2019-05-10T11:51:21.117Z,68.20
2019-05-10T11:53:55.371Z,68.10
2019-05-10T11:56:26.854Z,68.50
2019-05-10T11:59:03.773Z,69.40
2019-05-10T12:01:22.208Z,68.00
2019-05-10T12:03:51.239Z,68.20
2019-05-10T12:06:21.387Z,67.90
2019-05-10T12:08:56.999Z,67.40
2019-05-10T12:11:29.406Z,67.50
2019-05-10T12:13:52.854Z,66.20
2019-05-10T12:16:21.620Z,65.20
2019-05-10T12:19:05.397Z,66.30
2019-05-10T12:21:21.713Z,65.70
2019-05-10T12:23:54.943Z,66.00
2019-05-10T12:28:51.399Z,64.40
2019-05-10T12:31:21.023Z,64.40
2019-05-10T12:33:51.225Z,64.30
2019-05-10T12:36:26.263Z,64.30
2019-05-10T12:38:50.378Z,64.20
2019-05-10T12:41:23.208Z,64.00
2019-05-10T12:43:51.707Z,64.60
2019-05-10T12:46:20.659Z,65.00
2019-05-10T12:48:51.690Z,65.10
2019-05-10T12:51:21.149Z,65.80
2019-05-10T12:53:52.167Z,65.60
2019-05-10T12:56:20.676Z,64.70
2019-05-10T12:58:56.830Z,64.00
2019-05-10T13:01:19.735Z,63.70
2019-05-10T13:03:50.159Z,63.10
2019-05-10T13:06:19.809Z,62.70
2019-05-10T13:08:48.750Z,62.40
2019-05-10T13:11:19.194Z,62.00
2019-05-10T13:13:48.088Z,61.70
2019-05-10T13:16:16.884Z,61.40
2019-05-10T13:18:51.712Z,60.20
2019-05-10T13:21:21.030Z,59.60
2019-05-10T13:23:46.525Z,58.70
2019-05-10T13:26:15.398Z,58.30
2019-05-10T13:28:44.165Z,55.90
2019-05-10T13:31:15.123Z,56.70
2019-05-10T13:33:44.360Z,56.60
2019-05-10T13:36:13.413Z,56.60
2019-05-10T13:38:46.211Z,56.40
2019-05-10T13:41:17.976Z,55.60
2019-05-10T13:43:45.605Z,55.90
2019-05-10T13:46:15.278Z,56.30
2019-05-10T13:48:44.016Z,56.90
2019-05-10T13:51:12.745Z,57.90
2019-05-10T13:53:41.593Z,57.50
2019-05-10T13:56:10.382Z,57.80
2019-05-10T13:58:39.266Z,57.50
2019-05-10T14:01:13.083Z,56.80
2019-05-10T14:03:44.378Z,56.10
2019-05-10T14:06:08.848Z,55.50
2019-05-10T14:08:42.982Z,55.30
2019-05-10T14:11:07.949Z,55.40
2019-05-10T14:13:41.477Z,55.10
2019-05-10T14:16:07.652Z,54.90
2019-05-10T14:18:36.478Z,54.40
2019-05-10T14:21:05.348Z,55.10
2019-05-10T14:23:35.115Z,55.60
2019-05-10T14:26:09.406Z,56.80
2019-05-10T14:28:34.726Z,57.20
2019-05-10T14:31:03.452Z,57.50
2019-05-10T14:33:32.264Z,58.00
2019-05-10T14:36:03.166Z,57.70
2019-05-10T14:38:31.516Z,57.80
2019-05-10T14:41:04.013Z,58.30
2019-05-10T14:43:31.042Z,58.90
2019-05-10T14:45:59.752Z,58.90
2019-05-10T14:48:30.643Z,59.30
2019-05-10T14:51:03.332Z,58.60
2019-05-10T14:53:29.460Z,57.10
2019-05-10T14:55:58.190Z,56.40
2019-05-10T14:58:26.964Z,53.60
2019-05-10T15:00:55.856Z,51.90
2019-05-10T15:03:24.719Z,49.80
2019-05-10T15:05:55.525Z,48.60
2019-05-10T15:08:23.813Z,47.40
2019-05-10T15:10:52.581Z,47.30
2019-05-10T15:13:25.521Z,47.60
2019-05-10T15:15:51.748Z,45.90
2019-05-10T15:18:20.881Z,44.60
2019-05-10T15:20:51.881Z,46.40
2019-05-10T15:23:20.686Z,46.00
2019-05-10T15:25:57.112Z,46.90
2019-05-10T15:28:22.052Z,47.10
2019-05-10T15:30:53.088Z,46.70
2019-05-10T15:33:21.857Z,47.70
2019-05-10T15:35:51.862Z,49.30
2019-05-10T15:38:21.057Z,50.00
2019-05-10T15:40:49.917Z,51.10
2019-05-10T15:43:19.069Z,51.90
2019-05-10T15:45:52.476Z,52.70
2019-05-10T15:48:20.724Z,53.80
2019-05-10T15:50:50.151Z,54.40
2019-05-10T15:53:25.322Z,54.60
2019-05-10T15:55:50.411Z,55.20
2019-05-10T15:58:20.385Z,55.60
2019-05-10T16:00:49.203Z,56.00
2019-05-10T16:03:17.977Z,56.10
2019-05-10T16:06:00.011Z,56.30
2019-05-10T16:08:17.809Z,56.10
2019-05-10T16:10:46.539Z,56.60
2019-05-10T16:13:23.348Z,56.90
2019-05-10T16:15:51.580Z,56.90
2019-05-10T16:18:18.502Z,57.20
2019-05-10T16:20:47.215Z,57.70
2019-05-10T16:23:16.105Z,58.10
2019-05-10T16:25:48.180Z,58.30
2019-05-10T16:28:20.111Z,57.20
2019-05-10T16:30:48.205Z,57.50
2019-05-10T16:33:18.225Z,57.80
2019-05-10T16:35:49.745Z,57.70
2019-05-10T16:38:17.536Z,57.70
2019-05-10T16:40:57.400Z,57.20
2019-05-10T16:43:24.001Z,56.80
2019-05-10T16:45:47.062Z,56.20
2019-05-10T16:48:16.495Z,56.10
2019-05-10T16:50:46.977Z,56.50
2019-05-10T16:53:16.416Z,56.80
2019-05-10T16:55:45.214Z,57.10
2019-05-10T16:58:17.906Z,56.70
2019-05-10T17:00:46.662Z,57.00
2019-05-10T17:03:18.456Z,57.50
2019-05-10T17:05:53.422Z,57.80
2019-05-10T17:08:19.234Z,57.90
2019-05-10T17:10:47.985Z,58.20
2019-05-10T17:13:16.734Z,58.40
2019-05-10T17:15:45.588Z,58.90
2019-05-10T17:18:17.433Z,59.10
2019-05-10T17:20:50.736Z,59.50
2019-05-10T17:23:18.199Z,59.90
2019-05-10T17:25:46.245Z,60.20
2019-05-10T17:28:15.061Z,60.70
2019-05-10T17:30:44.985Z,61.00
2019-05-10T17:33:15.885Z,61.20
2019-05-10T17:35:44.629Z,61.70
2019-05-10T17:38:14.256Z,61.70
2019-05-10T17:40:47.966Z,61.90
2019-05-10T17:43:20.784Z,62.10
2019-05-10T17:45:45.585Z,62.30
2019-05-10T17:48:14.308Z,62.70
2019-05-10T17:50:45.755Z,63.00
2019-05-10T17:53:14.803Z,63.50
2019-05-10T17:55:49.373Z,64.00
2019-05-10T17:58:17.152Z,64.30
2019-05-10T18:00:46.978Z,65.30
2019-05-10T18:03:15.718Z,65.20
2019-05-10T18:05:52.793Z,65.40
2019-05-10T18:08:18.754Z,65.80
2019-05-10T18:10:47.488Z,66.30
2019-05-10T18:13:16.788Z,66.50
2019-05-10T18:15:45.882Z,67.30
2019-05-10T18:18:14.657Z,68.00
2019-05-10T18:20:44.503Z,68.50
2019-05-10T18:23:21.180Z,68.90
2019-05-10T18:25:45.583Z,69.50
2019-05-10T18:28:17.759Z,69.80
2019-05-10T18:30:45.294Z,70.10
2019-05-10T18:33:14.184Z,69.70
2019-05-10T18:35:47.369Z,70.10
2019-05-10T18:38:13.518Z,70.40
2019-05-10T18:40:42.273Z,70.60
2019-05-10T18:43:11.071Z,70.60
2019-05-10T18:45:41.265Z,71.10
2019-05-10T18:48:09.975Z,71.80
2019-05-10T18:50:39.785Z,71.90
2019-05-10T18:53:11.729Z,71.50
2019-05-10T18:55:41.901Z,72.10
2019-05-10T18:58:10.622Z,72.30
2019-05-10T19:00:41.421Z,72.20
2019-05-10T19:03:11.373Z,71.90
2019-05-10T19:05:40.110Z,71.90
2019-05-10T19:08:08.873Z,72.10
2019-05-10T19:10:37.605Z,72.50
2019-05-10T19:13:06.681Z,72.60
2019-05-10T19:15:35.822Z,72.90
2019-05-10T19:18:04.719Z,72.90
2019-05-10T19:20:33.735Z,73.00
2019-05-10T19:23:05.609Z,73.40
2019-05-10T19:25:37.535Z,74.10
2019-05-10T19:28:05.052Z,74.30
2019-05-10T19:30:35.327Z,75.70
2019-05-10T19:33:04.060Z,75.50
2019-05-10T19:35:35.633Z,76.10
2019-05-10T19:38:03.364Z,76.80
2019-05-10T19:40:32.093Z,77.20
2019-05-10T19:43:00.901Z,77.70
2019-05-10T19:45:31.344Z,78.30
2019-05-10T19:48:00.196Z,78.70
2019-05-10T19:50:33.177Z,79.10
2019-05-10T19:53:03.967Z,79.90
2019-05-10T19:55:29.813Z,80.20
2019-05-10T19:57:58.537Z,80.60
2019-05-10T20:00:27.332Z,81.00
2019-05-10T20:02:56.059Z,81.30
2019-05-10T20:05:24.795Z,81.60
2019-05-10T20:07:53.516Z,81.70
2019-05-10T20:10:24.053Z,81.80
2019-05-10T20:12:52.839Z,82.30
2019-05-10T20:15:21.584Z,82.70
2019-05-10T20:17:51.735Z,82.90
2019-05-10T20:20:20.719Z,83.70
2019-05-10T20:22:49.435Z,84.30
2019-05-10T20:25:18.310Z,85.00
2019-05-10T20:27:47.108Z,85.50
2019-05-10T20:30:17.588Z,85.60
2019-05-10T20:32:46.436Z,86.40
2019-05-10T20:35:15.329Z,87.00
2019-05-10T20:37:44.066Z,87.60
2019-05-10T20:40:12.948Z,88.40
2019-05-10T20:42:41.762Z,88.20
2019-05-10T20:45:10.776Z,88.30
2019-05-10T20:47:39.506Z,88.50
2019-05-10T20:50:08.420Z,89.30
2019-05-10T20:52:37.315Z,89.50
2019-05-10T20:55:07.036Z,89.90
2019-05-10T20:57:35.838Z,89.80
2019-05-10T21:00:06.170Z,90.10
2019-05-10T21:02:34.896Z,90.20
2019-05-10T21:05:04.561Z,90.10
2019-05-10T21:07:33.319Z,90.20
2019-05-10T21:10:02.041Z,90.00
2019-05-10T21:12:30.827Z,90.40
2019-05-10T21:14:59.557Z,90.50
2019-05-10T21:17:28.403Z,91.00
2019-05-10T21:19:57.220Z,90.90
2019-05-10T21:22:25.994Z,91.40
2019-05-10T21:24:54.718Z,91.60
2019-05-10T21:27:23.532Z,91.40
2019-05-10T21:29:52.277Z,91.60
2019-05-10T21:32:20.993Z,91.90
2019-05-10T21:34:49.724Z,92.00
2019-05-10T21:37:18.452Z,91.90
2019-05-10T21:39:47.209Z,92.20
2019-05-10T21:42:15.988Z,92.30
2019-05-10T21:44:44.716Z,92.40
2019-05-10T21:47:13.447Z,92.60
2019-05-10T21:49:42.258Z,92.80
2019-05-10T21:52:11.084Z,93.00
2019-05-10T21:54:39.796Z,92.90
2019-05-10T21:57:08.551Z,93.40
2019-05-10T21:59:37.252Z,93.50
2019-05-10T22:02:06.255Z,93.50
2019-05-10T22:04:34.980Z,93.70
2019-05-10T22:07:03.845Z,94.00
2019-05-10T22:09:32.686Z,93.70
2019-05-10T22:12:01.472Z,94.10
2019-05-10T22:14:30.186Z,93.70
2019-05-10T22:16:58.928Z,93.70
2019-05-10T22:19:27.722Z,93.80
2019-05-10T22:21:56.539Z,93.80
2019-05-10T22:24:25.264Z,93.70
2019-05-10T22:26:53.992Z,94.00
2019-05-10T22:29:22.807Z,93.40
2019-05-10T22:31:51.692Z,93.20
2019-05-10T22:34:20.488Z,93.10
2019-05-10T22:36:49.209Z,93.00
2019-05-10T22:39:17.936Z,92.90
2019-05-10T22:41:46.730Z,92.90
2019-05-10T22:44:15.453Z,92.90
2019-05-10T22:46:44.196Z,92.90
2019-05-10T22:49:12.923Z,92.90
2019-05-10T22:51:41.698Z,93.10
2019-05-10T22:54:10.404Z,92.80
2019-05-10T22:56:39.233Z,92.90
2019-05-10T22:59:08.004Z,92.90
2019-05-10T23:01:36.747Z,92.90
2019-05-10T23:04:05.475Z,92.90
2019-05-10T23:06:34.268Z,92.70
2019-05-10T23:09:04.530Z,92.50
2019-05-10T23:11:33.248Z,92.30
2019-05-10T23:14:02.053Z,92.10
2019-05-10T23:16:30.788Z,92.00
2019-05-10T23:18:59.588Z,91.90
2019-05-10T23:21:28.501Z,91.90
2019-05-10T23:23:57.262Z,91.90
2019-05-10T23:26:26.000Z,92.00
2019-05-10T23:28:54.772Z,92.10
2019-05-10T23:31:23.562Z,92.10
2019-05-10T23:33:52.285Z,92.00
2019-05-10T23:36:21.012Z,92.00
2019-05-10T23:38:52.277Z,92.00
2019-05-10T23:41:20.160Z,92.00
2019-05-10T23:43:48.883Z,92.00
2019-05-10T23:46:17.608Z,92.00
2019-05-10T23:48:46.505Z,92.00
2019-05-10T23:51:15.231Z,92.10
2019-05-10T23:53:43.954Z,92.10
2019-05-10T23:56:12.692Z,92.10
2019-05-10T23:58:41.427Z,92.20
